North Cascades National Park, WA

10:37 PM PST on December 19, 2014 (GMT -0800)
Newhalem Helistop | Change Station
CLOSE
Current Station
Personal Weather Station
Location: Newhalem, WA
Elevation: 504 ft
Nearby Weather Stations
Active Advisory: Winter Weather Advisory, Areal Flood Watch Active Notice: Record Report

Elev 504 ft 48.67 °N, 121.25 °W | Updated 10 seconds ago

Mostly Cloudy
Mostly Cloudy
40.3 °F
Feels Like 40 °F
N
0.0
Wind Variable Wind from NE
Gusts 1.0 mph

Today
High -- | Low -- °F
--% Chance of Precip.
Yesterday
High -- | Low -- °F
Precip. -- in
7:53 AM 4:11 PM
Waning Crescent, 4% visible
Pressure 29.88 in
Visibility 10.0 miles
Clouds Few 4900 ft
Mostly Cloudy 6000 ft
Overcast 12000 ft
Windchill 40 °F
Dew Point 40 °F
Humidity 100%
Rainfall 0.45 in
Snow Depth Not available.
UV 0.0 out of 12
Pollen .40 out of 12
Air Quality Not available.
Flu Activity Not available.
METAR KAWO 200615Z AUTO 11010KT 10SM FEW049 BKN060 OVC120 09/02 A2988 RMK AO1

More Conditions Fewer Conditions

Pressure 29.88 in
Visibility 10.0 miles
Clouds Few 4900 ft
Mostly Cloudy 6000 ft
Overcast 12000 ft
Windchill 40 °F
Dew Point 40 °F
Humidity 100%
Rainfall 0.45 in
Snow Depth Not available.
UV 0.0 out of 12
Pollen .40 out of 12
Air Quality Not available.
Flu Activity Not available.
METAR KAWO 200615Z AUTO 11010KT 10SM FEW049 BKN060 OVC120 09/02 A2988 RMK AO1

More Conditions Fewer Conditions

10-Day Weather Forecast

Almanac

Astronomy

Dec. 19, 2014 Rise Set
Actual Time
Civil Twilight
Nautical Twilight
Astronomical Twilight
Moon
Length of Visible Light
Length of Day
Tomorrow will be .
, % of the Moon is Illuminated

Today's Extremes

State Highs State Lows

Community

WunderPhotos

Upload Photos

1,779,145 photos uploaded!

WunderBlogs® & News

Nearby

Air Quality

  Air Quality AQ Index Pollutant
Not available.

Snow Depth

Station Depth Elevation

Earthquake Activity

City Distance Mag. Time & Date
Minimum magnitude displayed is 2.5.

Coastal Water Temperatures

Place Temperature

Nearby Weather Stations